sensor_id;sensor_type;location;lat;lon;timestamp;temperature;humidity
23156;DHT22;11746;50.876;4.246;2022-09-03T00:01:17;21.40;99.90
23156;DHT22;11746;50.876;4.246;2022-09-03T00:03:58;21.50;99.90
23156;DHT22;11746;50.876;4.246;2022-09-03T00:06:41;21.70;99.90
23156;DHT22;11746;50.876;4.246;2022-09-03T00:09:27;21.60;99.90
23156;DHT22;11746;50.876;4.246;2022-09-03T00:12:13;21.50;99.90
23156;DHT22;11746;50.876;4.246;2022-09-03T00:14:54;21.70;99.90
23156;DHT22;11746;50.876;4.246;2022-09-03T00:20:33;21.90;99.90
23156;DHT22;11746;50.876;4.246;2022-09-03T00:23:08;21.90;99.90
23156;DHT22;11746;50.876;4.246;2022-09-03T00:25:46;21.80;99.90
23156;DHT22;11746;50.876;4.246;2022-09-03T00:28:18;21.70;99.90
23156;DHT22;11746;50.876;4.246;2022-09-03T00:30:49;21.60;99.90
23156;DHT22;11746;50.876;4.246;2022-09-03T00:33:22;21.50;99.90
23156;DHT22;11746;50.876;4.246;2022-09-03T00:38:29;21.30;99.90
23156;DHT22;11746;50.876;4.246;2022-09-03T00:40:58;21.10;99.90
23156;DHT22;11746;50.876;4.246;2022-09-03T00:43:34;21.10;99.90
23156;DHT22;11746;50.876;4.246;2022-09-03T00:46:15;21.10;99.90
23156;DHT22;11746;50.876;4.246;2022-09-03T00:55:02;21.20;99.90
23156;DHT22;11746;50.876;4.246;2022-09-03T00:57:36;21.30;99.90
23156;DHT22;11746;50.876;4.246;2022-09-03T01:00:08;21.40;99.90
23156;DHT22;11746;50.876;4.246;2022-09-03T01:03:08;21.30;99.90
23156;DHT22;11746;50.876;4.246;2022-09-03T01:06:10;21.40;99.90
23156;DHT22;11746;50.876;4.246;2022-09-03T01:09:37;21.40;99.90
23156;DHT22;11746;50.876;4.246;2022-09-03T01:17:16;21.10;99.90
23156;DHT22;11746;50.876;4.246;2022-09-03T01:20:03;21.30;99.90
23156;DHT22;11746;50.876;4.246;2022-09-03T01:22:38;21.20;99.90
23156;DHT22;11746;50.876;4.246;2022-09-03T01:28:36;21.10;99.90
23156;DHT22;11746;50.876;4.246;2022-09-03T01:31:24;21.00;99.90
23156;DHT22;11746;50.876;4.246;2022-09-03T01:39:25;21.10;99.90
23156;DHT22;11746;50.876;4.246;2022-09-03T01:42:05;21.20;99.90
23156;DHT22;11746;50.876;4.246;2022-09-03T01:44:50;21.30;99.90
23156;DHT22;11746;50.876;4.246;2022-09-03T01:47:42;21.10;99.90
23156;DHT22;11746;50.876;4.246;2022-09-03T01:50:37;21.20;99.90
23156;DHT22;11746;50.876;4.246;2022-09-03T01:59:03;21.10;99.90
23156;DHT22;11746;50.876;4.246;2022-09-03T02:01:42;21.00;99.90
23156;DHT22;11746;50.876;4.246;2022-09-03T02:04:17;20.90;99.90
23156;DHT22;11746;50.876;4.246;2022-09-03T02:06:46;20.90;99.90
23156;DHT22;11746;50.876;4.246;2022-09-03T02:09:14;20.90;99.90
23156;DHT22;11746;50.876;4.246;2022-09-03T02:11:42;20.70;99.90
23156;DHT22;11746;50.876;4.246;2022-09-03T02:14:09;20.60;99.90
23156;DHT22;11746;50.876;4.246;2022-09-03T02:16:35;20.60;99.90
23156;DHT22;11746;50.876;4.246;2022-09-03T02:19:06;20.70;99.90
23156;DHT22;11746;50.876;4.246;2022-09-03T02:21:35;20.70;99.90
23156;DHT22;11746;50.876;4.246;2022-09-03T02:24:04;20.80;99.90
23156;DHT22;11746;50.876;4.246;2022-09-03T02:26:31;20.80;99.90
23156;DHT22;11746;50.876;4.246;2022-09-03T02:28:57;20.80;99.90
23156;DHT22;11746;50.876;4.246;2022-09-03T02:31:24;20.80;99.90
23156;DHT22;11746;50.876;4.246;2022-09-03T02:33:51;20.70;99.90
23156;DHT22;11746;50.876;4.246;2022-09-03T02:36:20;20.60;99.90
23156;DHT22;11746;50.876;4.246;2022-09-03T02:38:49;20.70;99.90
23156;DHT22;11746;50.876;4.246;2022-09-03T02:41:15;20.70;99.90
23156;DHT22;11746;50.876;4.246;2022-09-03T02:46:24;20.80;99.90
23156;DHT22;11746;50.876;4.246;2022-09-03T02:48:53;20.70;99.90
23156;DHT22;11746;50.876;4.246;2022-09-03T02:51:19;20.60;99.90
23156;DHT22;11746;50.876;4.246;2022-09-03T02:53:46;20.60;99.90
23156;DHT22;11746;50.876;4.246;2022-09-03T02:56:13;20.60;99.90
23156;DHT22;11746;50.876;4.246;2022-09-03T02:58:39;20.60;99.90
23156;DHT22;11746;50.876;4.246;2022-09-03T03:01:07;20.70;99.90
23156;DHT22;11746;50.876;4.246;2022-09-03T03:03:32;20.60;99.90
23156;DHT22;11746;50.876;4.246;2022-09-03T03:06:03;20.60;99.90
23156;DHT22;11746;50.876;4.246;2022-09-03T03:08:31;20.60;99.90
23156;DHT22;11746;50.876;4.246;2022-09-03T03:10:59;20.60;99.90
23156;DHT22;11746;50.876;4.246;2022-09-03T03:13:29;20.60;99.90
23156;DHT22;11746;50.876;4.246;2022-09-03T03:15:58;20.70;99.90
23156;DHT22;11746;50.876;4.246;2022-09-03T03:18:25;20.80;99.90
23156;DHT22;11746;50.876;4.246;2022-09-03T03:20:53;20.90;99.90
23156;DHT22;11746;50.876;4.246;2022-09-03T03:23:20;21.00;99.90
23156;DHT22;11746;50.876;4.246;2022-09-03T03:25:47;20.90;99.90
23156;DHT22;11746;50.876;4.246;2022-09-03T03:28:13;20.80;99.90
23156;DHT22;11746;50.876;4.246;2022-09-03T03:30:40;20.80;99.90
23156;DHT22;11746;50.876;4.246;2022-09-03T03:33:08;20.70;99.90
23156;DHT22;11746;50.876;4.246;2022-09-03T03:35:35;20.70;99.90
23156;DHT22;11746;50.876;4.246;2022-09-03T03:38:02;20.70;99.90
23156;DHT22;11746;50.876;4.246;2022-09-03T03:40:28;20.70;99.90
23156;DHT22;11746;50.876;4.246;2022-09-03T03:42:57;20.70;99.90
23156;DHT22;11746;50.876;4.246;2022-09-03T03:45:24;20.70;99.90
23156;DHT22;11746;50.876;4.246;2022-09-03T03:47:50;20.80;99.90
23156;DHT22;11746;50.876;4.246;2022-09-03T03:50:17;20.80;99.90
23156;DHT22;11746;50.876;4.246;2022-09-03T03:52:43;20.80;99.90
23156;DHT22;11746;50.876;4.246;2022-09-03T03:55:09;20.90;99.90
23156;DHT22;11746;50.876;4.246;2022-09-03T03:57:36;20.90;99.90
23156;DHT22;11746;50.876;4.246;2022-09-03T04:00:03;20.90;99.90
23156;DHT22;11746;50.876;4.246;2022-09-03T04:02:30;20.90;99.90
23156;DHT22;11746;50.876;4.246;2022-09-03T04:04:56;20.60;99.90
23156;DHT22;11746;50.876;4.246;2022-09-03T04:07:22;20.60;99.90
23156;DHT22;11746;50.876;4.246;2022-09-03T04:09:47;20.50;99.90
23156;DHT22;11746;50.876;4.246;2022-09-03T04:12:14;20.50;99.90
23156;DHT22;11746;50.876;4.246;2022-09-03T04:14:39;20.30;99.90
23156;DHT22;11746;50.876;4.246;2022-09-03T04:17:06;20.10;99.90
23156;DHT22;11746;50.876;4.246;2022-09-03T04:19:33;20.20;99.90
23156;DHT22;11746;50.876;4.246;2022-09-03T04:21:58;20.20;99.90
23156;DHT22;11746;50.876;4.246;2022-09-03T04:24:25;20.20;99.90
23156;DHT22;11746;50.876;4.246;2022-09-03T04:26:52;20.20;99.90
23156;DHT22;11746;50.876;4.246;2022-09-03T04:29:19;20.10;99.90
23156;DHT22;11746;50.876;4.246;2022-09-03T04:31:46;20.00;99.90
23156;DHT22;11746;50.876;4.246;2022-09-03T04:34:31;20.00;99.90
23156;DHT22;11746;50.876;4.246;2022-09-03T04:36:57;20.00;99.90
23156;DHT22;11746;50.876;4.246;2022-09-03T04:39:24;20.10;99.90
23156;DHT22;11746;50.876;4.246;2022-09-03T04:41:51;20.30;99.90
23156;DHT22;11746;50.876;4.246;2022-09-03T04:44:18;20.30;99.90
23156;DHT22;11746;50.876;4.246;2022-09-03T04:46:44;20.30;99.90
23156;DHT22;11746;50.876;4.246;2022-09-03T04:49:12;20.30;99.90
23156;DHT22;11746;50.876;4.246;2022-09-03T04:51:39;20.50;99.90
23156;DHT22;11746;50.876;4.246;2022-09-03T04:54:05;20.40;99.90
23156;DHT22;11746;50.876;4.246;2022-09-03T04:56:35;20.40;99.90
23156;DHT22;11746;50.876;4.246;2022-09-03T04:59:04;20.40;99.90
23156;DHT22;11746;50.876;4.246;2022-09-03T05:01:32;20.50;99.90
23156;DHT22;11746;50.876;4.246;2022-09-03T05:04:00;20.50;99.90
23156;DHT22;11746;50.876;4.246;2022-09-03T05:06:28;20.50;99.90
23156;DHT22;11746;50.876;4.246;2022-09-03T05:08:55;20.50;99.90
23156;DHT22;11746;50.876;4.246;2022-09-03T05:11:24;20.70;99.90
23156;DHT22;11746;50.876;4.246;2022-09-03T05:13:53;20.70;99.90
23156;DHT22;11746;50.876;4.246;2022-09-03T05:16:21;20.70;99.90
23156;DHT22;11746;50.876;4.246;2022-09-03T05:18:51;20.80;99.90
23156;DHT22;11746;50.876;4.246;2022-09-03T05:21:19;20.90;99.90
23156;DHT22;11746;50.876;4.246;2022-09-03T05:23:47;20.80;99.90
23156;DHT22;11746;50.876;4.246;2022-09-03T05:26:23;20.80;99.90
23156;DHT22;11746;50.876;4.246;2022-09-03T05:28:53;20.60;99.90
23156;DHT22;11746;50.876;4.246;2022-09-03T05:31:20;20.50;99.90
23156;DHT22;11746;50.876;4.246;2022-09-03T05:33:50;20.40;99.90
23156;DHT22;11746;50.876;4.246;2022-09-03T05:36:19;20.30;99.90
23156;DHT22;11746;50.876;4.246;2022-09-03T05:38:46;20.30;99.90
23156;DHT22;11746;50.876;4.246;2022-09-03T05:41:14;20.30;99.90
23156;DHT22;11746;50.876;4.246;2022-09-03T05:43:41;20.30;99.90
23156;DHT22;11746;50.876;4.246;2022-09-03T05:46:10;20.20;99.90
23156;DHT22;11746;50.876;4.246;2022-09-03T05:48:39;20.10;99.90
23156;DHT22;11746;50.876;4.246;2022-09-03T05:51:11;20.20;99.90
23156;DHT22;11746;50.876;4.246;2022-09-03T05:53:39;20.20;99.90
23156;DHT22;11746;50.876;4.246;2022-09-03T05:56:09;20.20;99.90
23156;DHT22;11746;50.876;4.246;2022-09-03T05:58:40;20.30;99.90
23156;DHT22;11746;50.876;4.246;2022-09-03T06:01:13;20.30;99.90
23156;DHT22;11746;50.876;4.246;2022-09-03T06:03:40;20.20;99.90
23156;DHT22;11746;50.876;4.246;2022-09-03T06:06:08;20.40;99.90
23156;DHT22;11746;50.876;4.246;2022-09-03T06:08:36;20.30;99.90
23156;DHT22;11746;50.876;4.246;2022-09-03T06:11:05;20.40;99.90
23156;DHT22;11746;50.876;4.246;2022-09-03T06:13:33;20.40;99.90
23156;DHT22;11746;50.876;4.246;2022-09-03T06:16:02;20.60;99.90
23156;DHT22;11746;50.876;4.246;2022-09-03T06:18:29;20.70;99.90
23156;DHT22;11746;50.876;4.246;2022-09-03T06:20:57;20.70;99.90
23156;DHT22;11746;50.876;4.246;2022-09-03T06:23:23;20.70;99.90
23156;DHT22;11746;50.876;4.246;2022-09-03T06:28:32;20.80;99.90
23156;DHT22;11746;50.876;4.246;2022-09-03T06:31:00;20.80;99.90
23156;DHT22;11746;50.876;4.246;2022-09-03T06:33:31;20.80;99.90
23156;DHT22;11746;50.876;4.246;2022-09-03T06:35:58;21.10;99.90
23156;DHT22;11746;50.876;4.246;2022-09-03T06:38:26;21.10;99.90
23156;DHT22;11746;50.876;4.246;2022-09-03T06:40:55;21.20;99.90
23156;DHT22;11746;50.876;4.246;2022-09-03T06:43:21;21.30;99.90
23156;DHT22;11746;50.876;4.246;2022-09-03T06:46:00;21.40;99.90
23156;DHT22;11746;50.876;4.246;2022-09-03T06:48:28;21.30;99.90
23156;DHT22;11746;50.876;4.246;2022-09-03T06:50:56;21.30;99.90
23156;DHT22;11746;50.876;4.246;2022-09-03T06:53:34;21.20;99.90
23156;DHT22;11746;50.876;4.246;2022-09-03T06:56:03;21.20;99.90
23156;DHT22;11746;50.876;4.246;2022-09-03T06:58:34;21.10;99.90
23156;DHT22;11746;50.876;4.246;2022-09-03T07:01:04;21.10;99.90
23156;DHT22;11746;50.876;4.246;2022-09-03T07:03:34;21.00;99.90
23156;DHT22;11746;50.876;4.246;2022-09-03T07:06:11;21.00;99.90
23156;DHT22;11746;50.876;4.246;2022-09-03T07:08:38;21.00;99.90
23156;DHT22;11746;50.876;4.246;2022-09-03T07:11:08;21.00;99.90
23156;DHT22;11746;50.876;4.246;2022-09-03T07:13:40;21.00;99.90
23156;DHT22;11746;50.876;4.246;2022-09-03T07:16:15;21.00;99.90
23156;DHT22;11746;50.876;4.246;2022-09-03T07:18:41;21.00;99.90
23156;DHT22;11746;50.876;4.246;2022-09-03T07:21:16;20.90;99.90
23156;DHT22;11746;50.876;4.246;2022-09-03T07:23:42;21.00;99.90
23156;DHT22;11746;50.876;4.246;2022-09-03T07:26:11;21.10;99.90
23156;DHT22;11746;50.876;4.246;2022-09-03T07:28:40;21.30;99.90
23156;DHT22;11746;50.876;4.246;2022-09-03T07:31:08;21.50;99.90
23156;DHT22;11746;50.876;4.246;2022-09-03T07:33:37;21.40;99.90
23156;DHT22;11746;50.876;4.246;2022-09-03T07:36:04;21.60;99.90
23156;DHT22;11746;50.876;4.246;2022-09-03T07:38:32;21.60;99.90
23156;DHT22;11746;50.876;4.246;2022-09-03T07:40:59;21.60;99.90
23156;DHT22;11746;50.876;4.246;2022-09-03T07:43:27;21.60;99.90
23156;DHT22;11746;50.876;4.246;2022-09-03T07:45:54;21.70;99.90
23156;DHT22;11746;50.876;4.246;2022-09-03T07:48:22;21.80;99.90
23156;DHT22;11746;50.876;4.246;2022-09-03T07:50:51;21.70;99.90
23156;DHT22;11746;50.876;4.246;2022-09-03T07:53:19;21.80;99.90
23156;DHT22;11746;50.876;4.246;2022-09-03T07:55:46;21.80;99.90
23156;DHT22;11746;50.876;4.246;2022-09-03T07:58:13;21.90;99.90
23156;DHT22;11746;50.876;4.246;2022-09-03T08:00:39;21.80;99.90
23156;DHT22;11746;50.876;4.246;2022-09-03T08:03:05;21.90;99.90
23156;DHT22;11746;50.876;4.246;2022-09-03T08:05:36;22.00;99.90
23156;DHT22;11746;50.876;4.246;2022-09-03T08:08:05;22.10;99.90
23156;DHT22;11746;50.876;4.246;2022-09-03T08:10:36;22.10;99.90
23156;DHT22;11746;50.876;4.246;2022-09-03T08:13:02;22.00;99.90
23156;DHT22;11746;50.876;4.246;2022-09-03T08:15:32;21.90;99.90
23156;DHT22;11746;50.876;4.246;2022-09-03T08:17:59;22.00;99.90
23156;DHT22;11746;50.876;4.246;2022-09-03T08:20:26;22.00;99.90
23156;DHT22;11746;50.876;4.246;2022-09-03T08:23:00;22.10;99.90
23156;DHT22;11746;50.876;4.246;2022-09-03T08:25:27;22.20;99.90
23156;DHT22;11746;50.876;4.246;2022-09-03T08:27:57;22.30;99.90
23156;DHT22;11746;50.876;4.246;2022-09-03T08:30:24;22.40;99.90
23156;DHT22;11746;50.876;4.246;2022-09-03T08:32:52;22.50;99.90
23156;DHT22;11746;50.876;4.246;2022-09-03T08:35:18;22.60;99.90
23156;DHT22;11746;50.876;4.246;2022-09-03T08:37:46;22.80;99.90
23156;DHT22;11746;50.876;4.246;2022-09-03T08:40:14;23.10;99.90
23156;DHT22;11746;50.876;4.246;2022-09-03T08:45:23;23.20;99.90
23156;DHT22;11746;50.876;4.246;2022-09-03T08:48:09;23.00;99.90
23156;DHT22;11746;50.876;4.246;2022-09-03T08:50:47;22.80;99.90
23156;DHT22;11746;50.876;4.246;2022-09-03T08:55:54;22.90;99.90
23156;DHT22;11746;50.876;4.246;2022-09-03T08:58:28;22.80;99.90
23156;DHT22;11746;50.876;4.246;2022-09-03T09:06:45;22.60;99.90
23156;DHT22;11746;50.876;4.246;2022-09-03T09:09:52;22.60;99.90
23156;DHT22;11746;50.876;4.246;2022-09-03T09:17:42;22.90;99.90
23156;DHT22;11746;50.876;4.246;2022-09-03T09:20:31;22.80;99.90
23156;DHT22;11746;50.876;4.246;2022-09-03T09:23:05;23.10;99.90
23156;DHT22;11746;50.876;4.246;2022-09-03T09:25:33;23.10;99.90
23156;DHT22;11746;50.876;4.246;2022-09-03T09:28:23;23.30;99.90
23156;DHT22;11746;50.876;4.246;2022-09-03T09:30:52;23.50;99.90
23156;DHT22;11746;50.876;4.246;2022-09-03T09:33:19;23.50;99.90
23156;DHT22;11746;50.876;4.246;2022-09-03T09:35:47;23.70;99.90
23156;DHT22;11746;50.876;4.246;2022-09-03T09:38:14;23.80;99.90
23156;DHT22;11746;50.876;4.246;2022-09-03T09:40:43;23.80;99.90
23156;DHT22;11746;50.876;4.246;2022-09-03T09:43:17;24.10;99.90
23156;DHT22;11746;50.876;4.246;2022-09-03T09:45:50;24.10;99.90
23156;DHT22;11746;50.876;4.246;2022-09-03T09:48:29;24.00;99.90
23156;DHT22;11746;50.876;4.246;2022-09-03T09:51:10;24.00;99.90
23156;DHT22;11746;50.876;4.246;2022-09-03T09:53:38;23.80;99.90
23156;DHT22;11746;50.876;4.246;2022-09-03T09:56:05;23.50;99.90
23156;DHT22;11746;50.876;4.246;2022-09-03T09:58:33;23.50;99.90
23156;DHT22;11746;50.876;4.246;2022-09-03T10:01:11;23.60;99.90
23156;DHT22;11746;50.876;4.246;2022-09-03T10:04:07;23.50;99.90
23156;DHT22;11746;50.876;4.246;2022-09-03T10:06:35;23.20;99.90
23156;DHT22;11746;50.876;4.246;2022-09-03T10:09:30;23.20;99.90
23156;DHT22;11746;50.876;4.246;2022-09-03T10:14:41;23.50;99.90
23156;DHT22;11746;50.876;4.246;2022-09-03T10:20:09;23.80;99.90
23156;DHT22;11746;50.876;4.246;2022-09-03T10:25:26;24.10;99.90
23156;DHT22;11746;50.876;4.246;2022-09-03T10:27:53;24.40;99.90
23156;DHT22;11746;50.876;4.246;2022-09-03T10:30:20;24.50;99.90
23156;DHT22;11746;50.876;4.246;2022-09-03T10:33:07;24.60;99.90
23156;DHT22;11746;50.876;4.246;2022-09-03T10:35:42;24.80;99.90
23156;DHT22;11746;50.876;4.246;2022-09-03T10:46:16;24.60;99.90
23156;DHT22;11746;50.876;4.246;2022-09-03T10:49:15;24.60;99.90
23156;DHT22;11746;50.876;4.246;2022-09-03T10:57:30;24.80;99.90
23156;DHT22;11746;50.876;4.246;2022-09-03T11:00:09;25.00;99.90
23156;DHT22;11746;50.876;4.246;2022-09-03T11:05:34;25.40;99.90
23156;DHT22;11746;50.876;4.246;2022-09-03T11:08:20;25.40;99.90
23156;DHT22;11746;50.876;4.246;2022-09-03T11:10:54;25.10;99.90
23156;DHT22;11746;50.876;4.246;2022-09-03T11:13:48;25.00;99.90
23156;DHT22;11746;50.876;4.246;2022-09-03T11:16:25;25.20;99.90
23156;DHT22;11746;50.876;4.246;2022-09-03T11:21:27;25.90;99.90
23156;DHT22;11746;50.876;4.246;2022-09-03T11:24:10;26.30;99.90
23156;DHT22;11746;50.876;4.246;2022-09-03T11:26:39;26.30;99.90
23156;DHT22;11746;50.876;4.246;2022-09-03T11:32:32;26.10;99.90
23156;DHT22;11746;50.876;4.246;2022-09-03T11:34:59;26.20;99.90
23156;DHT22;11746;50.876;4.246;2022-09-03T11:37:29;26.50;99.90
23156;DHT22;11746;50.876;4.246;2022-09-03T11:40:14;26.50;99.90
23156;DHT22;11746;50.876;4.246;2022-09-03T11:42:45;26.50;99.90
23156;DHT22;11746;50.876;4.246;2022-09-03T11:45:32;26.60;99.90
23156;DHT22;11746;50.876;4.246;2022-09-03T11:47:59;26.90;99.90
23156;DHT22;11746;50.876;4.246;2022-09-03T11:50:27;27.30;99.90
23156;DHT22;11746;50.876;4.246;2022-09-03T11:53:07;27.20;99.90
23156;DHT22;11746;50.876;4.246;2022-09-03T11:55:58;27.40;99.70
23156;DHT22;11746;50.876;4.246;2022-09-03T11:58:39;27.50;99.90
23156;DHT22;11746;50.876;4.246;2022-09-03T12:01:13;27.40;99.70
23156;DHT22;11746;50.876;4.246;2022-09-03T12:03:55;27.30;99.60
23156;DHT22;11746;50.876;4.246;2022-09-03T12:06:42;27.40;99.90
23156;DHT22;11746;50.876;4.246;2022-09-03T12:18:06;27.20;99.10
23156;DHT22;11746;50.876;4.246;2022-09-03T12:21:08;27.60;98.20
23156;DHT22;11746;50.876;4.246;2022-09-03T12:23:47;27.70;97.00
23156;DHT22;11746;50.876;4.246;2022-09-03T12:26:20;27.70;96.70
23156;DHT22;11746;50.876;4.246;2022-09-03T12:28:51;27.60;97.10
23156;DHT22;11746;50.876;4.246;2022-09-03T12:31:32;27.50;97.10
23156;DHT22;11746;50.876;4.246;2022-09-03T12:34:15;27.50;97.10
23156;DHT22;11746;50.876;4.246;2022-09-03T12:37:00;27.70;96.60
23156;DHT22;11746;50.876;4.246;2022-09-03T12:39:27;27.80;96.70
23156;DHT22;11746;50.876;4.246;2022-09-03T12:44:25;28.00;95.90
23156;DHT22;11746;50.876;4.246;2022-09-03T12:47:04;28.00;96.20
23156;DHT22;11746;50.876;4.246;2022-09-03T12:49:36;28.30;95.60
23156;DHT22;11746;50.876;4.246;2022-09-03T12:54:53;28.30;95.00
23156;DHT22;11746;50.876;4.246;2022-09-03T12:57:29;28.30;94.70
23156;DHT22;11746;50.876;4.246;2022-09-03T12:59:59;28.80;94.50
23156;DHT22;11746;50.876;4.246;2022-09-03T13:05:13;28.60;92.90
23156;DHT22;11746;50.876;4.246;2022-09-03T13:07:45;28.10;93.70
23156;DHT22;11746;50.876;4.246;2022-09-03T13:10:33;27.80;93.80
23156;DHT22;11746;50.876;4.246;2022-09-03T13:13:21;27.40;94.50
23156;DHT22;11746;50.876;4.246;2022-09-03T13:16:12;27.50;94.90
23156;DHT22;11746;50.876;4.246;2022-09-03T13:19:07;27.60;94.70
23156;DHT22;11746;50.876;4.246;2022-09-03T13:24:16;27.90;94.20
23156;DHT22;11746;50.876;4.246;2022-09-03T13:32:19;29.10;93.00
23156;DHT22;11746;50.876;4.246;2022-09-03T13:34:56;29.60;92.40
23156;DHT22;11746;50.876;4.246;2022-09-03T13:37:39;29.40;91.60
23156;DHT22;11746;50.876;4.246;2022-09-03T13:42:48;29.90;91.10
23156;DHT22;11746;50.876;4.246;2022-09-03T13:45:28;29.70;90.70
23156;DHT22;11746;50.876;4.246;2022-09-03T13:48:07;29.40;90.60
23156;DHT22;11746;50.876;4.246;2022-09-03T13:53:41;28.80;90.60
23156;DHT22;11746;50.876;4.246;2022-09-03T13:59:05;28.40;91.30
23156;DHT22;11746;50.876;4.246;2022-09-03T14:04:01;28.10;91.10
23156;DHT22;11746;50.876;4.246;2022-09-03T14:09:26;28.10;91.40
23156;DHT22;11746;50.876;4.246;2022-09-03T14:14:57;27.80;91.80
23156;DHT22;11746;50.876;4.246;2022-09-03T14:23:46;27.60;92.50
23156;DHT22;11746;50.876;4.246;2022-09-03T14:26:24;27.60;92.80
23156;DHT22;11746;50.876;4.246;2022-09-03T14:29:13;27.60;92.90
23156;DHT22;11746;50.876;4.246;2022-09-03T14:32:14;27.60;93.30
23156;DHT22;11746;50.876;4.246;2022-09-03T14:43:14;26.60;95.10
23156;DHT22;11746;50.876;4.246;2022-09-03T14:54:11;26.00;96.40
23156;DHT22;11746;50.876;4.246;2022-09-03T14:56:53;26.10;96.60
23156;DHT22;11746;50.876;4.246;2022-09-03T14:59:31;25.80;98.20
23156;DHT22;11746;50.876;4.246;2022-09-03T15:02:11;25.70;98.50
23156;DHT22;11746;50.876;4.246;2022-09-03T15:07:50;25.30;99.70
23156;DHT22;11746;50.876;4.246;2022-09-03T15:18:18;25.20;99.20
23156;DHT22;11746;50.876;4.246;2022-09-03T15:21:00;25.30;99.30
23156;DHT22;11746;50.876;4.246;2022-09-03T15:23:50;25.60;98.70
23156;DHT22;11746;50.876;4.246;2022-09-03T15:29:25;26.60;96.50
23156;DHT22;11746;50.876;4.246;2022-09-03T15:32:14;27.40;94.50
23156;DHT22;11746;50.876;4.246;2022-09-03T15:34:54;27.40;93.90
23156;DHT22;11746;50.876;4.246;2022-09-03T15:37:29;27.50;94.40
23156;DHT22;11746;50.876;4.246;2022-09-03T15:42:51;28.70;91.80
23156;DHT22;11746;50.876;4.246;2022-09-03T15:45:38;29.30;90.60
23156;DHT22;11746;50.876;4.246;2022-09-03T15:51:21;30.30;88.20
23156;DHT22;11746;50.876;4.246;2022-09-03T15:53:55;31.00;86.80
23156;DHT22;11746;50.876;4.246;2022-09-03T16:02:07;31.20;84.10
23156;DHT22;11746;50.876;4.246;2022-09-03T16:10:12;30.60;84.30
23156;DHT22;11746;50.876;4.246;2022-09-03T16:15:50;29.90;87.50
23156;DHT22;11746;50.876;4.246;2022-09-03T16:18:26;29.40;88.40
23156;DHT22;11746;50.876;4.246;2022-09-03T16:21:03;29.00;89.00
23156;DHT22;11746;50.876;4.246;2022-09-03T16:23:55;28.90;89.40
23156;DHT22;11746;50.876;4.246;2022-09-03T16:26:30;28.80;89.60
23156;DHT22;11746;50.876;4.246;2022-09-03T16:29:13;28.40;90.60
23156;DHT22;11746;50.876;4.246;2022-09-03T16:34:55;28.00;91.40
23156;DHT22;11746;50.876;4.246;2022-09-03T16:37:55;27.90;91.30
23156;DHT22;11746;50.876;4.246;2022-09-03T16:43:43;27.80;91.50
23156;DHT22;11746;50.876;4.246;2022-09-03T16:48:27;27.70;91.20
23156;DHT22;11746;50.876;4.246;2022-09-03T16:51:27;27.70;91.30
23156;DHT22;11746;50.876;4.246;2022-09-03T16:54:12;27.70;91.20
23156;DHT22;11746;50.876;4.246;2022-09-03T17:07:57;27.20;92.50
23156;DHT22;11746;50.876;4.246;2022-09-03T17:16:12;27.00;93.20
23156;DHT22;11746;50.876;4.246;2022-09-03T17:19:11;26.90;93.60
23156;DHT22;11746;50.876;4.246;2022-09-03T17:24:35;26.80;94.40
23156;DHT22;11746;50.876;4.246;2022-09-03T17:35:16;26.40;96.60
23156;DHT22;11746;50.876;4.246;2022-09-03T17:40:58;26.30;97.20
23156;DHT22;11746;50.876;4.246;2022-09-03T17:43:40;25.90;98.20
23156;DHT22;11746;50.876;4.246;2022-09-03T17:46:32;25.80;99.10
23156;DHT22;11746;50.876;4.246;2022-09-03T17:49:05;25.80;99.90
23156;DHT22;11746;50.876;4.246;2022-09-03T17:52:12;25.70;99.90
23156;DHT22;11746;50.876;4.246;2022-09-03T17:54:42;25.60;99.90
23156;DHT22;11746;50.876;4.246;2022-09-03T17:57:18;25.40;99.90
23156;DHT22;11746;50.876;4.246;2022-09-03T18:00:03;25.40;99.90
23156;DHT22;11746;50.876;4.246;2022-09-03T18:05:29;25.20;99.90
23156;DHT22;11746;50.876;4.246;2022-09-03T18:08:06;25.00;99.90
23156;DHT22;11746;50.876;4.246;2022-09-03T18:15:36;25.10;99.90
23156;DHT22;11746;50.876;4.246;2022-09-03T18:18:11;25.00;99.90
23156;DHT22;11746;50.876;4.246;2022-09-03T18:20:50;25.00;99.90
23156;DHT22;11746;50.876;4.246;2022-09-03T18:27:11;24.80;99.90
23156;DHT22;11746;50.876;4.246;2022-09-03T18:30:05;24.80;99.90
23156;DHT22;11746;50.876;4.246;2022-09-03T18:32:50;24.60;99.90
23156;DHT22;11746;50.876;4.246;2022-09-03T18:35:35;24.60;99.90
23156;DHT22;11746;50.876;4.246;2022-09-03T18:38:24;24.50;99.90
23156;DHT22;11746;50.876;4.246;2022-09-03T18:48:07;24.50;99.90
23156;DHT22;11746;50.876;4.246;2022-09-03T18:53:56;24.30;99.90
23156;DHT22;11746;50.876;4.246;2022-09-03T18:56:50;24.30;99.90
23156;DHT22;11746;50.876;4.246;2022-09-03T19:06:36;24.20;99.90
23156;DHT22;11746;50.876;4.246;2022-09-03T19:09:56;24.20;99.90
23156;DHT22;11746;50.876;4.246;2022-09-03T19:19:07;23.90;99.90
23156;DHT22;11746;50.876;4.246;2022-09-03T19:22:01;23.70;99.90
23156;DHT22;11746;50.876;4.246;2022-09-03T19:24:52;23.80;99.90
23156;DHT22;11746;50.876;4.246;2022-09-03T19:30:35;23.70;99.90
23156;DHT22;11746;50.876;4.246;2022-09-03T19:33:30;23.60;99.90
23156;DHT22;11746;50.876;4.246;2022-09-03T19:36:40;23.50;99.90
23156;DHT22;11746;50.876;4.246;2022-09-03T19:52:06;23.50;99.90
23156;DHT22;11746;50.876;4.246;2022-09-03T19:54:55;23.40;99.90
23156;DHT22;11746;50.876;4.246;2022-09-03T19:57:42;23.50;99.90
23156;DHT22;11746;50.876;4.246;2022-09-03T20:00:28;23.30;99.90
23156;DHT22;11746;50.876;4.246;2022-09-03T20:03:14;23.50;99.90
23156;DHT22;11746;50.876;4.246;2022-09-03T20:06:02;23.50;99.90
23156;DHT22;11746;50.876;4.246;2022-09-03T20:08:49;23.40;99.90
23156;DHT22;11746;50.876;4.246;2022-09-03T20:11:36;23.40;99.90
23156;DHT22;11746;50.876;4.246;2022-09-03T20:14:12;23.20;99.90
23156;DHT22;11746;50.876;4.246;2022-09-03T20:20:15;23.20;99.90
23156;DHT22;11746;50.876;4.246;2022-09-03T20:25:30;23.10;99.90
23156;DHT22;11746;50.876;4.246;2022-09-03T20:33:45;23.10;99.90
23156;DHT22;11746;50.876;4.246;2022-09-03T20:48:36;22.70;99.90
23156;DHT22;11746;50.876;4.246;2022-09-03T20:50:53;22.50;99.90
23156;DHT22;11746;50.876;4.246;2022-09-03T21:23:41;22.50;99.90
23156;DHT22;11746;50.876;4.246;2022-09-03T21:28:56;22.50;99.90
23156;DHT22;11746;50.876;4.246;2022-09-03T21:31:30;22.40;99.90
23156;DHT22;11746;50.876;4.246;2022-09-03T21:34:07;22.20;99.90
23156;DHT22;11746;50.876;4.246;2022-09-03T21:36:34;22.20;99.90
23156;DHT22;11746;50.876;4.246;2022-09-03T21:39:42;22.20;99.90
23156;DHT22;11746;50.876;4.246;2022-09-03T21:42:17;22.20;99.90
23156;DHT22;11746;50.876;4.246;2022-09-03T21:44:51;22.10;99.90
23156;DHT22;11746;50.876;4.246;2022-09-03T21:47:19;22.10;99.90